Time;durP1;ratioP1;P1;durP2;ratioP2;P2;SDS_P1;SDS_P2;PMS_P1;PMS_P2;Temp;Humidity;BMP_temperature;BMP_pressure;BME280_temperature;BME280_humidity;BME280_pressure;Samples;Min_cycle;Max_cycle;Signal;HPM_P1;HPM_P2
2023/07/02 00:01:06;;;;;;;29.77;12.10;;;;;;;;;;5131829;27;20236;-75
2023/07/02 00:03:33;;;;;;;27.43;13.37;;;;;;;;;;5134055;27;20277;-75
2023/07/02 00:06:00;;;;;;;38.10;13.03;;;;;;;;;;5133551;27;20659;-77
2023/07/02 00:08:28;;;;;;;27.30;12.73;;;;;;;;;;5133685;27;20280;-75
2023/07/02 00:10:55;;;;;;;27.30;12.60;;;;;;;;;;5134068;27;20299;-75
2023/07/02 00:13:23;;;;;;;26.20;12.57;;;;;;;;;;5134933;27;20284;-75
2023/07/02 00:15:50;;;;;;;32.33;13.27;;;;;;;;;;5135913;27;20209;-76
2023/07/02 00:18:17;;;;;;;32.77;13.00;;;;;;;;;;5135324;27;20280;-76
2023/07/02 00:20:44;;;;;;;27.00;12.90;;;;;;;;;;5134819;27;20688;-75
2023/07/02 00:23:11;;;;;;;29.07;14.00;;;;;;;;;;5134725;27;20224;-76
2023/07/02 00:25:40;;;;;;;31.97;13.10;;;;;;;;;;5135120;27;20197;-75
2023/07/02 00:28:07;;;;;;;25.70;12.97;;;;;;;;;;5134604;27;20284;-76
2023/07/02 00:30:34;;;;;;;24.57;12.43;;;;;;;;;;5134899;27;20713;-76
2023/07/02 00:33:01;;;;;;;32.37;12.33;;;;;;;;;;5134971;27;20291;-75
2023/07/02 00:35:28;;;;;;;28.77;13.27;;;;;;;;;;5134766;27;20189;-76
2023/07/02 00:37:56;;;;;;;26.87;12.30;;;;;;;;;;5134069;27;20288;-76
2023/07/02 00:40:23;;;;;;;27.93;12.40;;;;;;;;;;5134462;27;20200;-76
2023/07/02 00:42:51;;;;;;;26.47;13.37;;;;;;;;;;5134276;27;20227;-76
2023/07/02 00:45:19;;;;;;;28.43;12.73;;;;;;;;;;5134443;27;20280;-76
2023/07/02 00:47:46;;;;;;;34.00;13.00;;;;;;;;;;5134518;27;20320;-76
2023/07/02 00:50:13;;;;;;;28.20;12.33;;;;;;;;;;5132974;27;20328;-77
2023/07/02 00:52:41;;;;;;;29.67;12.80;;;;;;;;;;5129892;27;20193;-77
2023/07/02 00:55:08;;;;;;;26.77;12.23;;;;;;;;;;5115803;27;20200;-76
2023/07/02 00:57:35;;;;;;;23.73;13.10;;;;;;;;;;5134058;27;20253;-75
2023/07/02 01:00:05;;;;;;;33.43;12.27;;;;;;;;;;5133290;27;20661;-76
2023/07/02 01:02:32;;;;;;;30.27;12.43;;;;;;;;;;5132166;27;20735;-76
2023/07/02 01:04:59;;;;;;;28.53;12.63;;;;;;;;;;5131723;27;20204;-77
2023/07/02 01:07:27;;;;;;;24.43;11.93;;;;;;;;;;5132975;27;20638;-76
2023/07/02 01:09:54;;;;;;;30.57;12.33;;;;;;;;;;5114536;27;20276;-77
2023/07/02 01:12:22;;;;;;;23.60;10.87;;;;;;;;;;5133773;27;20193;-77
2023/07/02 01:14:49;;;;;;;28.63;12.20;;;;;;;;;;5126868;27;20221;-76
2023/07/02 01:17:19;;;;;;;27.10;12.07;;;;;;;;;;5133318;27;20231;-76
2023/07/02 01:19:51;;;;;;;28.67;11.90;;;;;;;;;;5132281;27;20221;-75
2023/07/02 01:22:18;;;;;;;26.57;12.00;;;;;;;;;;5132539;27;20232;-76
2023/07/02 01:24:47;;;;;;;25.80;11.80;;;;;;;;;;5133406;27;20201;-76
2023/07/02 01:27:15;;;;;;;30.37;12.00;;;;;;;;;;5133062;27;20230;-77
2023/07/02 01:29:44;;;;;;;27.13;12.13;;;;;;;;;;5133418;27;20300;-75
2023/07/02 01:32:12;;;;;;;27.40;12.90;;;;;;;;;;5132566;27;20201;-76
2023/07/02 01:34:39;;;;;;;23.90;11.47;;;;;;;;;;5128744;27;20337;-76
2023/07/02 01:37:09;;;;;;;27.43;12.30;;;;;;;;;;5113324;27;20197;-76
2023/07/02 01:39:36;;;;;;;27.00;12.13;;;;;;;;;;5122995;27;20228;-76
2023/07/02 01:42:10;;;;;;;25.70;10.77;;;;;;;;;;5132290;27;20248;-77
2023/07/02 01:44:37;;;;;;;27.03;11.57;;;;;;;;;;5132903;27;20609;-76
2023/07/02 01:47:04;;;;;;;26.43;12.27;;;;;;;;;;5129803;27;20280;-76
2023/07/02 01:49:32;;;;;;;29.17;12.13;;;;;;;;;;5132248;27;20300;-76
2023/07/02 01:51:59;;;;;;;27.77;12.00;;;;;;;;;;5132342;27;20296;-76
2023/07/02 01:54:29;;;;;;;24.97;11.07;;;;;;;;;;5132323;27;20292;-76
2023/07/02 01:56:56;;;;;;;27.80;11.50;;;;;;;;;;5132101;27;20250;-75
2023/07/02 01:59:23;;;;;;;24.60;11.30;;;;;;;;;;5120973;27;20700;-76
2023/07/02 02:01:50;;;;;;;25.13;11.47;;;;;;;;;;5128823;27;20289;-76
2023/07/02 02:04:18;;;;;;;28.37;11.33;;;;;;;;;;5131621;27;20200;-77
2023/07/02 02:06:45;;;;;;;23.73;11.23;;;;;;;;;;5116488;27;20288;-75
2023/07/02 02:09:12;;;;;;;24.43;11.60;;;;;;;;;;5130623;27;20253;-76
2023/07/02 02:11:42;;;;;;;27.13;11.00;;;;;;;;;;5131492;27;20235;-76
2023/07/02 02:14:09;;;;;;;23.43;11.23;;;;;;;;;;5131117;27;20241;-76
2023/07/02 02:16:36;;;;;;;28.40;11.93;;;;;;;;;;5132112;27;20287;-75
2023/07/02 02:19:03;;;;;;;26.23;11.70;;;;;;;;;;5126886;27;20225;-76
2023/07/02 02:21:31;;;;;;;24.60;11.63;;;;;;;;;;5131448;27;20193;-75
2023/07/02 02:23:58;;;;;;;25.73;11.90;;;;;;;;;;5128956;27;20341;-76
2023/07/02 02:26:26;;;;;;;29.07;11.67;;;;;;;;;;5118235;27;20200;-75
2023/07/02 02:28:54;;;;;;;24.13;12.43;;;;;;;;;;5132687;27;20566;-76
2023/07/02 02:31:21;;;;;;;26.23;12.00;;;;;;;;;;5130777;27;20619;-76
2023/07/02 02:33:49;;;;;;;26.20;11.70;;;;;;;;;;5117089;27;20221;-75
2023/07/02 02:36:17;;;;;;;22.83;11.77;;;;;;;;;;5131273;27;20205;-75
2023/07/02 02:38:44;;;;;;;26.77;12.20;;;;;;;;;;5121726;27;20202;-75
2023/07/02 02:41:11;;;;;;;29.83;11.73;;;;;;;;;;5131881;27;20284;-75
2023/07/02 02:43:38;;;;;;;25.30;12.60;;;;;;;;;;5123421;27;20320;-75
2023/07/02 02:46:07;;;;;;;30.07;12.13;;;;;;;;;;5120353;27;20193;-76
2023/07/02 02:48:34;;;;;;;23.33;11.60;;;;;;;;;;5113800;27;20285;-76
2023/07/02 02:51:01;;;;;;;26.23;11.53;;;;;;;;;;5123673;27;20704;-76
2023/07/02 02:53:29;;;;;;;29.33;12.03;;;;;;;;;;5130987;27;20242;-75
2023/07/02 02:55:56;;;;;;;28.13;12.00;;;;;;;;;;5131005;27;20260;-76
2023/07/02 02:58:23;;;;;;;26.67;11.43;;;;;;;;;;5129989;27;20280;-76
2023/07/02 03:00:51;;;;;;;24.73;12.03;;;;;;;;;;5130888;27;20203;-76
2023/07/02 03:03:20;;;;;;;29.10;12.90;;;;;;;;;;5131965;27;20228;-76
2023/07/02 03:05:48;;;;;;;26.30;12.13;;;;;;;;;;5130347;28;20193;-75
2023/07/02 03:08:15;;;;;;;24.93;11.93;;;;;;;;;;5131105;27;20201;-76
2023/07/02 03:10:43;;;;;;;24.67;12.73;;;;;;;;;;5130019;28;20596;-75
2023/07/02 03:13:10;;;;;;;21.73;11.63;;;;;;;;;;5132205;28;20292;-76
2023/07/02 03:15:37;;;;;;;26.30;12.67;;;;;;;;;;5130666;28;20292;-76
2023/07/02 03:18:04;;;;;;;24.53;11.63;;;;;;;;;;5130264;28;20291;-75
2023/07/02 03:20:33;;;;;;;28.63;12.73;;;;;;;;;;5130973;28;20300;-75
2023/07/02 03:23:00;;;;;;;31.83;13.10;;;;;;;;;;5131723;28;20224;-75
2023/07/02 03:25:27;;;;;;;29.03;12.70;;;;;;;;;;5134317;27;20196;-76
2023/07/02 03:27:55;;;;;;;27.43;11.60;;;;;;;;;;5135235;27;20189;-76
2023/07/02 03:30:22;;;;;;;24.37;11.77;;;;;;;;;;5134786;27;20276;-76
2023/07/02 03:32:49;;;;;;;24.03;11.40;;;;;;;;;;5135276;27;20211;-76
2023/07/02 03:35:16;;;;;;;27.07;12.00;;;;;;;;;;5122311;27;20288;-76
2023/07/02 03:37:46;;;;;;;24.67;12.67;;;;;;;;;;5135298;27;20205;-77
2023/07/02 03:40:13;;;;;;;27.27;11.60;;;;;;;;;;5134249;27;20815;-76
2023/07/02 03:42:40;;;;;;;25.23;11.73;;;;;;;;;;5135732;27;20308;-76
2023/07/02 03:45:08;;;;;;;24.37;12.17;;;;;;;;;;5134248;27;20289;-75
2023/07/02 03:47:35;;;;;;;28.07;12.57;;;;;;;;;;5115374;27;20773;-75
2023/07/02 03:50:02;;;;;;;23.70;12.07;;;;;;;;;;5118396;27;20316;-75
2023/07/02 03:52:30;;;;;;;26.57;12.13;;;;;;;;;;5135598;27;20289;-75
2023/07/02 03:54:59;;;;;;;23.47;12.33;;;;;;;;;;5130219;27;20610;-76
2023/07/02 03:57:26;;;;;;;26.57;11.80;;;;;;;;;;5115093;28;20280;-75
2023/07/02 03:59:53;;;;;;;25.27;12.53;;;;;;;;;;5117463;27;20690;-75
2023/07/02 04:02:20;;;;;;;25.53;12.13;;;;;;;;;;5134337;27;20284;-76
2023/07/02 04:04:48;;;;;;;26.80;12.00;;;;;;;;;;5133687;27;20264;-77
2023/07/02 04:07:15;;;;;;;25.80;12.30;;;;;;;;;;5124981;27;20285;-76
2023/07/02 04:09:43;;;;;;;28.57;12.10;;;;;;;;;;5132233;27;20204;-76
2023/07/02 04:12:11;;;;;;;26.93;12.30;;;;;;;;;;5134169;27;20284;-76
2023/07/02 04:14:38;;;;;;;24.00;12.03;;;;;;;;;;5133739;27;20253;-75
2023/07/02 04:17:06;;;;;;;22.47;12.07;;;;;;;;;;5134202;27;20280;-76
2023/07/02 04:19:33;;;;;;;29.27;13.10;;;;;;;;;;5133372;27;20291;-76
2023/07/02 04:22:00;;;;;;;27.47;12.03;;;;;;;;;;5134422;27;20280;-75
2023/07/02 04:24:27;;;;;;;23.17;12.40;;;;;;;;;;5127584;27;20316;-76
2023/07/02 04:26:55;;;;;;;28.00;11.67;;;;;;;;;;5116718;27;20229;-76
2023/07/02 04:29:23;;;;;;;29.67;12.23;;;;;;;;;;5134395;27;20597;-76
2023/07/02 04:31:50;;;;;;;28.80;12.20;;;;;;;;;;5129029;27;20285;-76
2023/07/02 04:34:17;;;;;;;25.60;11.63;;;;;;;;;;5127587;27;20198;-76
2023/07/02 04:36:45;;;;;;;26.00;12.23;;;;;;;;;;5122704;27;20732;-76
2023/07/02 04:39:12;;;;;;;27.67;12.10;;;;;;;;;;5134479;27;20652;-76
2023/07/02 04:41:39;;;;;;;27.23;12.37;;;;;;;;;;5133858;27;20292;-76
2023/07/02 04:44:06;;;;;;;26.73;12.30;;;;;;;;;;5131715;27;20304;-75
2023/07/02 04:46:35;;;;;;;29.40;12.40;;;;;;;;;;5131550;27;20193;-76
2023/07/02 04:49:02;;;;;;;33.07;12.63;;;;;;;;;;5119434;27;20205;-76
2023/07/02 04:51:29;;;;;;;26.07;12.27;;;;;;;;;;5133334;27;20244;-76
2023/07/02 04:53:56;;;;;;;26.10;12.43;;;;;;;;;;5133490;27;20229;-76
2023/07/02 04:56:24;;;;;;;29.40;12.03;;;;;;;;;;5133434;27;20228;-76
2023/07/02 04:58:51;;;;;;;27.33;12.70;;;;;;;;;;5131807;27;20279;-75
2023/07/02 05:01:18;;;;;;;30.23;13.67;;;;;;;;;;5133035;27;20322;-75
2023/07/02 05:03:46;;;;;;;29.03;12.80;;;;;;;;;;5133522;27;20320;-75
2023/07/02 05:06:14;;;;;;;29.87;13.00;;;;;;;;;;5132429;27;20300;-75
2023/07/02 05:08:41;;;;;;;33.17;13.30;;;;;;;;;;5119954;27;20226;-76
2023/07/02 05:11:08;;;;;;;29.07;12.63;;;;;;;;;;5126442;27;20678;-76
2023/07/02 05:13:36;;;;;;;25.03;11.97;;;;;;;;;;5133929;27;20196;-75
2023/07/02 05:16:03;;;;;;;28.47;12.00;;;;;;;;;;5130542;27;20289;-76
2023/07/02 05:18:30;;;;;;;27.73;12.40;;;;;;;;;;5133002;27;20296;-75
2023/07/02 05:20:58;;;;;;;30.67;12.93;;;;;;;;;;5127425;27;20222;-76
2023/07/02 05:23:26;;;;;;;25.87;12.73;;;;;;;;;;5123092;27;20317;-76
2023/07/02 05:25:53;;;;;;;27.97;12.50;;;;;;;;;;5125437;27;20225;-77
2023/07/02 05:28:20;;;;;;;30.27;13.23;;;;;;;;;;5133419;27;20288;-76
2023/07/02 05:30:47;;;;;;;26.73;11.90;;;;;;;;;;5133221;27;20288;-76
2023/07/02 05:33:15;;;;;;;26.97;12.77;;;;;;;;;;5132274;27;20288;-75
2023/07/02 05:35:43;;;;;;;28.60;12.73;;;;;;;;;;5131471;27;20661;-76
2023/07/02 05:38:11;;;;;;;28.33;12.67;;;;;;;;;;5132308;27;20193;-76
2023/07/02 05:40:38;;;;;;;29.93;12.40;;;;;;;;;;5131906;27;20772;-76
2023/07/02 05:43:06;;;;;;;29.87;12.80;;;;;;;;;;5132544;27;20284;-75
2023/07/02 05:45:33;;;;;;;24.50;12.27;;;;;;;;;;5131442;27;20236;-76
2023/07/02 05:48:00;;;;;;;26.60;12.13;;;;;;;;;;5119882;27;20285;-75
2023/07/02 05:50:27;;;;;;;24.53;11.63;;;;;;;;;;5120325;27;20227;-75
2023/07/02 05:52:54;;;;;;;27.63;11.97;;;;;;;;;;5132355;27;20197;-76
2023/07/02 05:55:23;;;;;;;23.23;11.18;;;;;;;;;;5131344;27;20674;-76
2023/07/02 05:57:50;;;;;;;24.80;12.20;;;;;;;;;;5132736;27;20225;-76
2023/07/02 06:00:17;;;;;;;26.45;13.00;;;;;;;;;;5131954;27;20291;-76
2023/07/02 06:02:47;;;;;;;22.92;11.90;;;;;;;;;;5129323;27;20228;-76
2023/07/02 06:05:14;;;;;;;24.30;11.35;;;;;;;;;;5119219;27;20256;-76
2023/07/02 06:07:42;;;;;;;24.50;11.57;;;;;;;;;;5131092;27;20316;-77
2023/07/02 06:10:09;;;;;;;22.58;11.13;;;;;;;;;;5129332;27;20208;-77
2023/07/02 06:12:38;;;;;;;22.08;11.80;;;;;;;;;;5132345;27;20224;-75
2023/07/02 06:15:05;;;;;;;27.88;12.25;;;;;;;;;;5132021;27;20258;-77
2023/07/02 06:17:33;;;;;;;28.63;12.30;;;;;;;;;;5131763;27;20233;-76
2023/07/02 06:20:00;;;;;;;24.55;10.90;;;;;;;;;;5131720;27;20201;-75
2023/07/02 06:22:27;;;;;;;25.45;11.68;;;;;;;;;;5131895;27;20284;-76
2023/07/02 06:24:54;;;;;;;21.83;11.27;;;;;;;;;;5122876;27;20332;-77
2023/07/02 06:27:21;;;;;;;25.50;11.55;;;;;;;;;;5124808;27;20223;-76
2023/07/02 06:29:51;;;;;;;25.58;11.55;;;;;;;;;;5132018;27;20583;-77
2023/07/02 06:32:18;;;;;;;23.52;10.80;;;;;;;;;;5123015;27;20232;-75
2023/07/02 06:34:46;;;;;;;25.15;10.55;;;;;;;;;;5131576;27;20208;-74
2023/07/02 06:37:13;;;;;;;20.42;11.15;;;;;;;;;;5123677;27;20810;-76
2023/07/02 06:39:40;;;;;;;18.42;10.50;;;;;;;;;;5119163;27;20782;-76
2023/07/02 06:42:08;;;;;;;23.67;10.82;;;;;;;;;;5130852;27;20830;-76
2023/07/02 06:44:35;;;;;;;21.38;10.98;;;;;;;;;;5132090;27;20704;-75
2023/07/02 06:47:03;;;;;;;24.40;10.48;;;;;;;;;;5126298;27;20202;-75
2023/07/02 06:49:30;;;;;;;24.33;10.50;;;;;;;;;;5111544;28;20228;-75
2023/07/02 06:52:00;;;;;;;23.55;10.80;;;;;;;;;;5122667;27;20331;-75
2023/07/02 06:54:27;;;;;;;22.45;10.50;;;;;;;;;;5120839;27;20722;-75
2023/07/02 06:56:54;;;;;;;18.55;10.00;;;;;;;;;;5130971;27;20228;-75
2023/07/02 06:59:22;;;;;;;27.13;10.48;;;;;;;;;;5131510;27;20287;-76
2023/07/02 07:01:49;;;;;;;24.10;10.23;;;;;;;;;;5117753;28;20202;-75
2023/07/02 07:04:17;;;;;;;21.83;9.85;;;;;;;;;;5131181;27;20349;-76
2023/07/02 07:06:44;;;;;;;19.67;10.45;;;;;;;;;;5132088;27;20216;-76
2023/07/02 07:09:12;;;;;;;22.60;11.00;;;;;;;;;;5131290;28;20243;-76
2023/07/02 07:11:39;;;;;;;19.48;9.73;;;;;;;;;;5132106;27;20279;-76
2023/07/02 07:14:06;;;;;;;21.73;9.48;;;;;;;;;;5132049;27;20221;-76
2023/07/02 07:16:33;;;;;;;21.98;10.00;;;;;;;;;;5132053;27;20225;-77
2023/07/02 07:19:00;;;;;;;20.95;8.70;;;;;;;;;;5132009;28;20280;-77
2023/07/02 07:21:29;;;;;;;22.38;9.40;;;;;;;;;;5131327;28;20745;-76
2023/07/02 07:23:56;;;;;;;19.73;9.32;;;;;;;;;;5131786;27;20312;-77
2023/07/02 07:26:23;;;;;;;21.52;9.65;;;;;;;;;;5130086;28;20216;-77
2023/07/02 07:28:50;;;;;;;16.35;8.63;;;;;;;;;;5128381;28;20193;-76
2023/07/02 07:31:18;;;;;;;20.27;9.15;;;;;;;;;;5128081;28;20276;-76
2023/07/02 07:33:45;;;;;;;18.95;9.85;;;;;;;;;;5128889;27;20280;-76
2023/07/02 07:36:12;;;;;;;18.38;8.63;;;;;;;;;;4774045;27;10000240;-77
2023/07/02 07:38:41;;;;;;;22.08;9.40;;;;;;;;;;5126094;27;20284;-76
2023/07/02 07:41:08;;;;;;;20.67;9.07;;;;;;;;;;5124916;28;20193;-78
2023/07/02 07:43:36;;;;;;;22.13;9.50;;;;;;;;;;5127657;28;20221;-78
2023/07/02 07:46:03;;;;;;;23.60;9.75;;;;;;;;;;5131382;28;20203;-78
2023/07/02 07:48:30;;;;;;;20.35;9.73;;;;;;;;;;5131894;27;20288;-78
2023/07/02 07:50:57;;;;;;;21.65;9.20;;;;;;;;;;5131198;27;20681;-77
2023/07/02 07:53:25;;;;;;;25.23;9.45;;;;;;;;;;5131441;27;20220;-77
2023/07/02 07:55:53;;;;;;;20.48;8.90;;;;;;;;;;5130499;28;20248;-78
2023/07/02 07:58:20;;;;;;;20.02;9.40;;;;;;;;;;5127995;28;20285;-77
2023/07/02 08:00:47;;;;;;;18.63;9.25;;;;;;;;;;5127483;28;20292;-77
2023/07/02 08:03:15;;;;;;;21.30;9.40;;;;;;;;;;5127789;27;20223;-77
2023/07/02 08:05:42;;;;;;;19.38;9.05;;;;;;;;;;5131125;27;20267;-78
2023/07/02 08:08:09;;;;;;;22.27;9.68;;;;;;;;;;5131121;28;20719;-78
2023/07/02 08:10:36;;;;;;;16.65;8.95;;;;;;;;;;5131202;27;20205;-77
2023/07/02 08:13:05;;;;;;;19.02;9.18;;;;;;;;;;5134755;27;20225;-77
2023/07/02 08:15:32;;;;;;;26.83;9.48;;;;;;;;;;5135074;27;20281;-77
2023/07/02 08:17:59;;;;;;;19.73;8.98;;;;;;;;;;5135305;27;20288;-78
2023/07/02 08:20:27;;;;;;;23.08;9.90;;;;;;;;;;5134842;27;20272;-77
2023/07/02 08:22:54;;;;;;;25.42;9.48;;;;;;;;;;5135645;27;20645;-78
2023/07/02 08:25:22;;;;;;;21.38;9.32;;;;;;;;;;5134990;27;20229;-78
2023/07/02 08:27:50;;;;;;;21.95;9.80;;;;;;;;;;5135232;27;20192;-77
2023/07/02 08:30:19;;;;;;;15.98;8.70;;;;;;;;;;5135122;27;20249;-78
2023/07/02 08:32:47;;;;;;;16.25;9.27;;;;;;;;;;5135281;27;20677;-76
2023/07/02 08:35:14;;;;;;;25.42;9.77;;;;;;;;;;5134488;27;20705;-78
2023/07/02 08:37:41;;;;;;;20.17;8.70;;;;;;;;;;5135033;27;20748;-78
2023/07/02 08:40:16;;;;;;;18.95;9.63;;;;;;;;;;5135102;27;20640;-79
2023/07/02 08:42:44;;;;;;;22.05;9.45;;;;;;;;;;5135064;27;20195;-78
2023/07/02 08:45:11;;;;;;;15.63;8.40;;;;;;;;;;5134942;27;20315;-78
2023/07/02 08:47:40;;;;;;;17.77;8.25;;;;;;;;;;5135154;27;20629;-78
2023/07/02 08:50:07;;;;;;;17.98;9.05;;;;;;;;;;5134436;27;20282;-78
2023/07/02 08:52:35;;;;;;;19.25;8.57;;;;;;;;;;5134747;27;20280;-78
2023/07/02 08:55:02;;;;;;;16.42;8.48;;;;;;;;;;5134683;27;20217;-78
2023/07/02 08:57:29;;;;;;;18.45;8.98;;;;;;;;;;5134561;27;20789;-78
2023/07/02 08:59:56;;;;;;;20.83;8.73;;;;;;;;;;5134585;27;20221;-78
2023/07/02 09:02:31;;;;;;;18.70;8.75;;;;;;;;;;5134638;27;20196;-78
2023/07/02 09:05:01;;;;;;;21.00;9.15;;;;;;;;;;5134034;27;20224;-78
2023/07/02 09:07:29;;;;;;;20.45;9.00;;;;;;;;;;5134592;27;20193;-77
2023/07/02 09:09:56;;;;;;;19.25;8.20;;;;;;;;;;5134513;27;20193;-78
2023/07/02 09:12:24;;;;;;;19.20;9.10;;;;;;;;;;5134342;27;20218;-78
2023/07/02 09:14:56;;;;;;;14.13;8.45;;;;;;;;;;5134182;27;20197;-78
2023/07/02 09:17:28;;;;;;;16.80;8.27;;;;;;;;;;5134412;27;20578;-78
2023/07/02 09:19:55;;;;;;;18.20;8.25;;;;;;;;;;5133884;27;20665;-79
2023/07/02 09:22:23;;;;;;;19.85;9.73;;;;;;;;;;5133869;27;20300;-77
2023/07/02 09:24:54;;;;;;;16.77;8.68;;;;;;;;;;5134063;27;20311;-77
2023/07/02 09:27:21;;;;;;;16.27;8.45;;;;;;;;;;5134108;27;20197;-79
2023/07/02 09:29:51;;;;;;;18.55;8.38;;;;;;;;;;5133821;27;20709;-79
2023/07/02 09:32:25;;;;;;;15.50;7.88;;;;;;;;;;5133501;27;20193;-78
2023/07/02 09:34:53;;;;;;;17.70;8.50;;;;;;;;;;5134127;27;20288;-79
2023/07/02 09:37:20;;;;;;;16.65;8.20;;;;;;;;;;5133841;27;20228;-79
2023/07/02 09:39:51;;;;;;;16.23;7.80;;;;;;;;;;5133967;27;20714;-77
2023/07/02 09:42:19;;;;;;;16.63;8.65;;;;;;;;;;5133856;27;20275;-79
2023/07/02 09:44:47;;;;;;;13.00;7.30;;;;;;;;;;5133802;27;20253;-78
2023/07/02 09:47:14;;;;;;;15.52;7.80;;;;;;;;;;5134391;27;20208;-79
2023/07/02 09:49:43;;;;;;;19.75;7.93;;;;;;;;;;5133908;27;20221;-78
2023/07/02 09:52:11;;;;;;;17.05;8.75;;;;;;;;;;5133663;27;20220;-78
2023/07/02 09:54:39;;;;;;;15.82;8.27;;;;;;;;;;5133938;27;20228;-78
2023/07/02 09:57:08;;;;;;;15.77;7.90;;;;;;;;;;5133646;27;20236;-78
2023/07/02 09:59:35;;;;;;;17.85;7.57;;;;;;;;;;5133338;27;20201;-78
2023/07/02 10:02:03;;;;;;;14.07;7.53;;;;;;;;;;5133345;27;20280;-78
2023/07/02 10:04:40;;;;;;;17.40;8.02;;;;;;;;;;5133104;27;20291;-79
2023/07/02 10:07:08;;;;;;;15.25;7.55;;;;;;;;;;5133547;27;20631;-78
2023/07/02 10:09:36;;;;;;;18.17;7.97;;;;;;;;;;5133471;27;20197;-78
2023/07/02 10:12:04;;;;;;;16.83;7.80;;;;;;;;;;5133026;27;20225;-78
2023/07/02 10:14:43;;;;;;;14.75;7.60;;;;;;;;;;5133392;27;20188;-78
2023/07/02 10:17:10;;;;;;;16.92;7.85;;;;;;;;;;5132949;27;20193;-78
2023/07/02 10:19:37;;;;;;;17.40;8.13;;;;;;;;;;5132891;27;20655;-78
2023/07/02 10:22:07;;;;;;;15.43;7.32;;;;;;;;;;5132967;27;20242;-78
2023/07/02 10:24:34;;;;;;;14.20;7.88;;;;;;;;;;5132793;27;20201;-78
2023/07/02 10:27:03;;;;;;;18.80;7.80;;;;;;;;;;5132868;27;20802;-78
2023/07/02 10:29:30;;;;;;;18.05;7.55;;;;;;;;;;5132935;27;20204;-78
2023/07/02 10:32:00;;;;;;;12.38;7.18;;;;;;;;;;5132485;27;20279;-78
2023/07/02 10:34:31;;;;;;;12.75;6.68;;;;;;;;;;5132529;27;20248;-78
2023/07/02 10:36:58;;;;;;;15.13;7.25;;;;;;;;;;5132829;27;20280;-78
2023/07/02 10:39:26;;;;;;;12.98;6.68;;;;;;;;;;5132378;27;20199;-78
2023/07/02 10:41:53;;;;;;;14.52;7.25;;;;;;;;;;5132851;27;20193;-78
2023/07/02 10:44:20;;;;;;;13.43;7.07;;;;;;;;;;5132760;27;20318;-79
2023/07/02 10:46:48;;;;;;;13.75;7.28;;;;;;;;;;5132172;27;20225;-78
2023/07/02 10:49:19;;;;;;;15.70;7.45;;;;;;;;;;5132882;27;20280;-78
2023/07/02 10:51:46;;;;;;;16.02;7.20;;;;;;;;;;5132506;27;20292;-78
2023/07/02 10:54:15;;;;;;;14.52;6.82;;;;;;;;;;5132324;27;20204;-78
2023/07/02 10:56:43;;;;;;;16.25;7.78;;;;;;;;;;5132217;27;20784;-78
2023/07/02 10:59:10;;;;;;;14.20;7.63;;;;;;;;;;5132480;27;20271;-78
2023/07/02 11:01:37;;;;;;;13.27;7.00;;;;;;;;;;5132312;27;20193;-78
2023/07/02 11:04:05;;;;;;;13.98;6.72;;;;;;;;;;5132211;27;20254;-78
2023/07/02 11:06:34;;;;;;;13.88;6.50;;;;;;;;;;5132139;27;20312;-79
2023/07/02 11:09:03;;;;;;;14.40;7.70;;;;;;;;;;5132812;27;20228;-78
2023/07/02 11:11:30;;;;;;;16.77;6.25;;;;;;;;;;5132375;28;20196;-78
2023/07/02 11:13:57;;;;;;;10.68;6.18;;;;;;;;;;5131977;28;20224;-78
2023/07/02 11:16:26;;;;;;;12.93;5.55;;;;;;;;;;5132402;28;20205;-78
2023/07/02 11:18:54;;;;;;;12.07;5.88;;;;;;;;;;5131983;28;20193;-79
2023/07/02 11:21:21;;;;;;;13.80;5.68;;;;;;;;;;5132598;28;20220;-78
2023/07/02 11:23:50;;;;;;;12.25;5.47;;;;;;;;;;5132469;28;20189;-78
2023/07/02 11:26:17;;;;;;;13.45;5.80;;;;;;;;;;5131945;28;20315;-78
2023/07/02 11:28:51;;;;;;;14.85;8.40;;;;;;;;;;5132014;28;20217;-78
2023/07/02 11:31:27;;;;;;;15.55;7.57;;;;;;;;;;5132120;28;20197;-79
2023/07/02 11:33:55;;;;;;;13.45;6.80;;;;;;;;;;5132051;28;20857;-79
2023/07/02 11:36:23;;;;;;;15.13;8.00;;;;;;;;;;5132146;28;20279;-78
2023/07/02 11:38:52;;;;;;;13.05;6.05;;;;;;;;;;5131997;28;20570;-78
2023/07/02 11:41:20;;;;;;;11.80;5.38;;;;;;;;;;5132273;28;20193;-79
2023/07/02 11:43:47;;;;;;;13.75;5.30;;;;;;;;;;5131859;27;20274;-78
2023/07/02 11:46:15;;;;;;;11.40;5.30;;;;;;;;;;5135098;27;20721;-78
2023/07/02 11:48:42;;;;;;;10.50;5.60;;;;;;;;;;5136199;27;20653;-78
2023/07/02 11:51:09;;;;;;;11.65;5.13;;;;;;;;;;5135848;27;20727;-78
2023/07/02 11:53:36;;;;;;;11.48;5.15;;;;;;;;;;5135795;27;20295;-78
2023/07/02 11:56:05;;;;;;;13.40;5.55;;;;;;;;;;5135745;27;20287;-78
2023/07/02 11:58:32;;;;;;;12.00;5.32;;;;;;;;;;5135689;27;20276;-78
2023/07/02 12:00:59;;;;;;;11.95;5.05;;;;;;;;;;5135794;27;20201;-78
2023/07/02 12:03:27;;;;;;;8.23;4.80;;;;;;;;;;5135915;27;20193;-78
2023/07/02 12:05:54;;;;;;;11.23;5.20;;;;;;;;;;5135578;27;20311;-78
2023/07/02 12:08:21;;;;;;;9.55;5.30;;;;;;;;;;5135479;27;20197;-79
2023/07/02 12:10:48;;;;;;;9.77;5.22;;;;;;;;;;5135746;27;20193;-78
2023/07/02 12:13:17;;;;;;;12.38;5.75;;;;;;;;;;5135398;27;20288;-79
2023/07/02 12:15:44;;;;;;;12.18;5.57;;;;;;;;;;5135704;27;20288;-78
2023/07/02 12:18:11;;;;;;;11.32;4.95;;;;;;;;;;5135069;27;20287;-78
2023/07/02 12:20:39;;;;;;;12.80;5.10;;;;;;;;;;5135469;27;20235;-79
2023/07/02 12:23:06;;;;;;;11.68;5.18;;;;;;;;;;5135554;27;20200;-78
2023/07/02 12:25:33;;;;;;;11.50;5.10;;;;;;;;;;5134936;27;20225;-78
2023/07/02 12:28:00;;;;;;;12.85;5.13;;;;;;;;;;5134867;27;20193;-78
2023/07/02 12:30:29;;;;;;;11.27;5.03;;;;;;;;;;5135322;27;20682;-79
2023/07/02 12:32:56;;;;;;;10.90;4.80;;;;;;;;;;5135634;27;20189;-79
2023/07/02 12:35:23;;;;;;;13.35;5.45;;;;;;;;;;5135189;27;20197;-78
2023/07/02 12:37:51;;;;;;;14.18;5.30;;;;;;;;;;5134864;27;20197;-79
2023/07/02 12:40:19;;;;;;;14.20;5.22;;;;;;;;;;5135437;27;20201;-79
2023/07/02 12:42:47;;;;;;;12.35;4.72;;;;;;;;;;5134633;27;20224;-78
2023/07/02 12:45:15;;;;;;;16.10;5.20;;;;;;;;;;5135006;27;20193;-79
2023/07/02 12:47:43;;;;;;;11.80;4.70;;;;;;;;;;5134994;27;20843;-77
2023/07/02 12:50:11;;;;;;;11.45;5.00;;;;;;;;;;5134706;27;20233;-79
2023/07/02 12:52:38;;;;;;;12.88;5.47;;;;;;;;;;5134963;27;20284;-78
2023/07/02 12:55:06;;;;;;;11.32;4.60;;;;;;;;;;5134929;27;20288;-78
2023/07/02 12:57:33;;;;;;;11.35;5.00;;;;;;;;;;5134018;27;20205;-78
2023/07/02 13:00:00;;;;;;;9.82;4.88;;;;;;;;;;5134338;27;20729;-78
2023/07/02 13:02:28;;;;;;;16.48;5.20;;;;;;;;;;5134853;27;20199;-79
2023/07/02 13:04:56;;;;;;;12.60;4.82;;;;;;;;;;5134826;27;20729;-78
2023/07/02 13:07:25;;;;;;;10.68;4.55;;;;;;;;;;5134494;27;20665;-79
2023/07/02 13:09:52;;;;;;;10.77;4.65;;;;;;;;;;5134223;27;20561;-79
2023/07/02 13:12:19;;;;;;;11.45;4.93;;;;;;;;;;5134427;27;20669;-78
2023/07/02 13:14:47;;;;;;;12.38;4.80;;;;;;;;;;5134208;27;20760;-78
2023/07/02 13:17:14;;;;;;;16.85;5.22;;;;;;;;;;5134414;27;20626;-79
2023/07/02 13:19:42;;;;;;;12.40;4.90;;;;;;;;;;5133938;27;20239;-77
2023/07/02 13:22:10;;;;;;;12.82;4.88;;;;;;;;;;5134753;27;20224;-78
2023/07/02 13:24:40;;;;;;;11.95;4.78;;;;;;;;;;5133773;27;20285;-78
2023/07/02 13:27:10;;;;;;;11.48;4.68;;;;;;;;;;5134157;27;20229;-77
2023/07/02 13:29:37;;;;;;;14.93;4.70;;;;;;;;;;5133776;27;20228;-78
2023/07/02 13:32:04;;;;;;;13.02;4.78;;;;;;;;;;5133999;27;20288;-77
2023/07/02 13:34:32;;;;;;;11.70;5.15;;;;;;;;;;5134128;27;20204;-79
2023/07/02 13:36:59;;;;;;;10.68;4.68;;;;;;;;;;5134126;27;20224;-78
2023/07/02 13:39:27;;;;;;;9.35;4.82;;;;;;;;;;5133512;27;20288;-77
2023/07/02 13:41:54;;;;;;;12.38;5.32;;;;;;;;;;5134061;27;20273;-78
2023/07/02 13:44:22;;;;;;;10.10;4.80;;;;;;;;;;5133979;27;20283;-78
2023/07/02 13:46:49;;;;;;;14.80;4.85;;;;;;;;;;5133827;27;20315;-78
2023/07/02 13:49:17;;;;;;;13.73;5.13;;;;;;;;;;5134107;27;20231;-78
2023/07/02 13:51:44;;;;;;;13.25;4.65;;;;;;;;;;5133553;27;20235;-78
2023/07/02 13:54:14;;;;;;;12.63;5.03;;;;;;;;;;5133272;27;20193;-78
2023/07/02 13:56:42;;;;;;;11.93;4.90;;;;;;;;;;5133928;27;20225;-78
2023/07/02 13:59:11;;;;;;;11.40;4.78;;;;;;;;;;5133398;27;20683;-77
2023/07/02 14:01:38;;;;;;;14.48;4.18;;;;;;;;;;5133560;27;20284;-78
2023/07/02 14:04:05;;;;;;;9.98;4.05;;;;;;;;;;5133403;27;20288;-78
2023/07/02 14:06:33;;;;;;;11.23;4.70;;;;;;;;;;5133299;27;20252;-77
2023/07/02 14:09:00;;;;;;;13.55;4.43;;;;;;;;;;5131929;27;20641;-78
2023/07/02 14:11:28;;;;;;;10.82;4.50;;;;;;;;;;5133330;27;20247;-78
2023/07/02 14:13:55;;;;;;;10.90;4.70;;;;;;;;;;5133234;27;20193;-79
2023/07/02 14:16:24;;;;;;;12.57;4.32;;;;;;;;;;5133653;27;20295;-78
2023/07/02 14:18:51;;;;;;;12.65;4.28;;;;;;;;;;5133129;27;20193;-77
2023/07/02 14:21:20;;;;;;;10.23;4.40;;;;;;;;;;5133111;27;20197;-77
2023/07/02 14:23:47;;;;;;;13.35;5.00;;;;;;;;;;5132828;27;20201;-78
2023/07/02 14:26:14;;;;;;;11.10;4.75;;;;;;;;;;5132863;27;20336;-77